createdAt,value
2022-10-07T00:03:39.302Z,1021.198
2022-10-07T00:08:51.836Z,1021.116
2022-10-07T00:14:03.908Z,1021.134
2022-10-07T00:19:16.286Z,1021.089
2022-10-07T00:24:28.876Z,1021.078
2022-10-07T00:29:41.004Z,1021.082
2022-10-07T00:34:53.452Z,1021.017
2022-10-07T00:40:05.714Z,1021.071
2022-10-07T00:45:18.179Z,1020.963
2022-10-07T00:50:30.587Z,1020.978
2022-10-07T00:55:43.019Z,1020.858
2022-10-07T01:00:55.160Z,1020.851
2022-10-07T01:06:07.684Z,1020.792
2022-10-07T01:11:20.081Z,1020.756
2022-10-07T01:16:32.290Z,1020.749
2022-10-07T01:21:44.560Z,1020.631
2022-10-07T01:26:56.765Z,1020.626
2022-10-07T01:32:09.191Z,1020.481
2022-10-07T01:37:21.434Z,1020.447
2022-10-07T01:42:33.684Z,1020.345
2022-10-07T01:47:46.343Z,1020.388
2022-10-07T01:52:58.482Z,1020.303
2022-10-07T01:58:10.657Z,1020.174
2022-10-07T02:03:23.194Z,1020.1
2022-10-07T02:08:35.454Z,1020.113
2022-10-07T02:13:47.658Z,1020.092
2022-10-07T02:18:59.845Z,1020.08
2022-10-07T02:24:12.185Z,1019.969
2022-10-07T02:29:24.442Z,1019.979
2022-10-07T02:34:36.841Z,1019.893
2022-10-07T02:39:49.200Z,1019.913
2022-10-07T02:45:01.403Z,1019.905
2022-10-07T02:50:13.924Z,1019.797
2022-10-07T02:55:26.410Z,1019.737
2022-10-07T03:00:38.556Z,1019.764
2022-10-07T03:05:50.912Z,1019.764
2022-10-07T03:11:03.242Z,1019.657
2022-10-07T03:16:15.823Z,1019.586
2022-10-07T03:21:27.971Z,1019.592
2022-10-07T03:26:40.351Z,1019.498
2022-10-07T03:31:52.830Z,1019.538
2022-10-07T03:37:05.010Z,1019.48
2022-10-07T03:42:17.390Z,1019.433
2022-10-07T03:47:29.788Z,1019.313
2022-10-07T03:52:42.432Z,1019.31
2022-10-07T03:57:59.229Z,1019.31
2022-10-07T04:03:07.163Z,1019.224
2022-10-07T04:08:19.706Z,1019.238
2022-10-07T04:13:32.088Z,1019.152
2022-10-07T04:18:44.654Z,1019.195
2022-10-07T04:23:56.976Z,1019.141
2022-10-07T04:29:09.434Z,1019.072
2022-10-07T04:34:21.546Z,1019.085
2022-10-07T04:39:56.394Z,1019.054
2022-10-07T04:44:46.482Z,1018.922
2022-10-07T04:49:58.371Z,1018.926
2022-10-07T04:55:10.833Z,1018.834
2022-10-07T05:00:23.378Z,1018.821
2022-10-07T05:05:35.659Z,1018.773
2022-10-07T05:10:47.900Z,1018.678
2022-10-07T05:16:00.198Z,1018.63
2022-10-07T05:21:12.508Z,1018.632
2022-10-07T05:26:24.952Z,1018.597
2022-10-07T05:31:37.190Z,1018.495
2022-10-07T05:36:49.511Z,1018.429
2022-10-07T05:42:01.929Z,1018.367
2022-10-07T05:47:14.291Z,1018.336
2022-10-07T05:52:26.627Z,1018.407
2022-10-07T05:57:39.168Z,1018.374
2022-10-07T06:02:51.845Z,1018.416
2022-10-07T06:08:04.067Z,1018.446
2022-10-07T06:13:16.475Z,1018.475
2022-10-07T06:18:28.949Z,1018.385
2022-10-07T06:23:41.232Z,1018.38
2022-10-07T06:28:53.669Z,1018.308
2022-10-07T06:34:06.110Z,1018.329
2022-10-07T06:39:18.428Z,1018.363
2022-10-07T06:44:30.894Z,1018.389
2022-10-07T06:49:43.374Z,1018.408
2022-10-07T06:54:55.803Z,1018.426
2022-10-07T07:00:08.206Z,1018.398
2022-10-07T07:05:20.555Z,1018.447
2022-10-07T07:10:32.967Z,1018.397
2022-10-07T07:15:45.582Z,1018.393
2022-10-07T07:20:57.995Z,1018.391
2022-10-07T07:26:10.318Z,1018.382
2022-10-07T07:31:22.964Z,1018.321
2022-10-07T07:36:35.385Z,1018.279
2022-10-07T07:41:47.760Z,1018.239
2022-10-07T07:46:59.867Z,1018.21
2022-10-07T07:52:12.256Z,1018.281
2022-10-07T08:02:36.774Z,1018.236
2022-10-07T08:07:49.180Z,1018.164
2022-10-07T08:13:01.441Z,1018.108
2022-10-07T08:18:13.668Z,1018.074
2022-10-07T08:23:26.547Z,1018.049
2022-10-07T08:28:39.038Z,1017.995
2022-10-07T08:33:51.352Z,1017.964
2022-10-07T08:39:03.593Z,1017.888
2022-10-07T08:44:16.966Z,1017.883
2022-10-07T08:49:28.429Z,1017.846
2022-10-07T08:54:40.782Z,1017.788
2022-10-07T08:59:53.186Z,1017.721
2022-10-07T09:05:05.650Z,1017.642
2022-10-07T09:10:18.051Z,1017.645
2022-10-07T09:15:30.394Z,1017.564
2022-10-07T09:20:42.864Z,1017.477
2022-10-07T09:25:55.328Z,1017.427
2022-10-07T09:31:07.946Z,1017.388
2022-10-07T09:36:20.668Z,1017.323
2022-10-07T09:41:33.113Z,1017.362
2022-10-07T09:46:45.426Z,1017.292
2022-10-07T09:51:57.753Z,1017.229
2022-10-07T09:57:10.208Z,1017.232
2022-10-07T10:02:22.758Z,1017.215
2022-10-07T10:07:34.925Z,1017.136
2022-10-07T10:12:47.913Z,1017.126
2022-10-07T10:17:59.843Z,1016.992
2022-10-07T10:23:12.178Z,1016.913
2022-10-07T10:28:24.784Z,1016.917
2022-10-07T10:33:37.032Z,1016.802
2022-10-07T10:38:49.363Z,1016.622
2022-10-07T10:44:01.886Z,1016.591
2022-10-07T10:49:14.412Z,1016.533
2022-10-07T10:54:26.530Z,1016.401
2022-10-07T10:59:38.860Z,1016.223
2022-10-07T11:04:51.517Z,1016.164
2022-10-07T11:10:03.692Z,1016.102
2022-10-07T11:15:16.144Z,1016.029
2022-10-07T11:20:28.572Z,1015.913
2022-10-07T11:25:40.911Z,1015.844
2022-10-07T11:30:53.303Z,1015.617
2022-10-07T11:36:05.700Z,1015.594
2022-10-07T11:41:19.307Z,1015.406
2022-10-07T11:46:31.810Z,1015.434
2022-10-07T11:51:44.251Z,1015.315
2022-10-07T11:56:56.886Z,1015.345
2022-10-07T12:02:09.270Z,1015.269
2022-10-07T12:07:21.555Z,1015.019
2022-10-07T12:12:33.952Z,1015.063
2022-10-07T12:17:46.309Z,1014.878
2022-10-07T12:22:58.745Z,1014.775
2022-10-07T12:28:11.367Z,1014.804
2022-10-07T12:33:23.795Z,1014.747
2022-10-07T12:38:35.976Z,1014.57
2022-10-07T12:43:48.349Z,1014.495
2022-10-07T12:49:00.598Z,1014.451
2022-10-07T12:54:13.056Z,1014.341
2022-10-07T12:59:25.741Z,1014.233
2022-10-07T13:04:38.843Z,1014.083
2022-10-07T13:09:51.553Z,1014.188
2022-10-07T13:15:03.880Z,1014.139
2022-10-07T13:20:16.210Z,1013.94
2022-10-07T13:25:28.570Z,1013.984
2022-10-07T13:30:40.862Z,1014.093
2022-10-07T13:35:53.191Z,1013.928
2022-10-07T13:41:05.306Z,1013.764
2022-10-07T13:46:19.130Z,1013.871
2022-10-07T13:51:32.092Z,1013.788
2022-10-07T13:56:45.016Z,1013.655
2022-10-07T14:01:57.713Z,1013.568
2022-10-07T14:07:09.717Z,1013.623
2022-10-07T14:12:21.879Z,1013.451
2022-10-07T14:17:34.427Z,1013.254
2022-10-07T14:22:47.517Z,1013.202
2022-10-07T14:27:59.818Z,1013.117
2022-10-07T14:33:12.090Z,1013.051
2022-10-07T14:38:24.642Z,1012.969
2022-10-07T14:43:37.056Z,1013.063
2022-10-07T14:48:49.176Z,1012.816
2022-10-07T14:54:01.538Z,1012.779
2022-10-07T14:59:13.825Z,1012.778
2022-10-07T15:04:25.930Z,1012.59
2022-10-07T15:09:38.250Z,1012.627
2022-10-07T15:14:50.705Z,1012.599
2022-10-07T15:20:03.157Z,1012.439
2022-10-07T15:25:15.986Z,1012.421
2022-10-07T15:30:28.468Z,1012.405
2022-10-07T15:35:40.916Z,1012.484
2022-10-07T15:40:53.163Z,1012.305
2022-10-07T15:46:05.441Z,1012.232
2022-10-07T15:51:17.874Z,1012.204
2022-10-07T16:01:42.863Z,1012.191
2022-10-07T16:06:55.062Z,1012.083
2022-10-07T16:12:07.488Z,1012.099
2022-10-07T16:17:19.568Z,1012.186
2022-10-07T16:22:31.923Z,1012.039
2022-10-07T16:27:44.411Z,1011.995
2022-10-07T16:32:56.246Z,1011.965
2022-10-07T16:38:08.577Z,1011.894
2022-10-07T16:43:21.119Z,1011.957
2022-10-07T16:48:34.335Z,1011.915
2022-10-07T16:53:46.557Z,1011.849
2022-10-07T16:58:58.992Z,1011.8
2022-10-07T17:04:11.969Z,1011.777
2022-10-07T17:09:24.159Z,1011.75
2022-10-07T17:14:36.533Z,1011.772
2022-10-07T17:19:48.618Z,1011.734
2022-10-07T17:30:13.381Z,1011.758
2022-10-07T17:35:25.516Z,1011.692
2022-10-07T17:40:37.989Z,1011.616
2022-10-07T17:45:50.351Z,1011.537
2022-10-07T17:51:02.800Z,1011.496
2022-10-07T17:56:15.175Z,1011.414
2022-10-07T18:01:27.574Z,1011.396
2022-10-07T18:06:39.786Z,1011.379
2022-10-07T18:11:52.119Z,1011.334
2022-10-07T18:17:04.278Z,1011.289
2022-10-07T18:22:16.486Z,1011.193
2022-10-07T18:27:28.703Z,1011.118
2022-10-07T18:32:41.048Z,1011.029
2022-10-07T18:37:53.357Z,1010.985
2022-10-07T18:43:05.536Z,1010.972
2022-10-07T18:48:17.798Z,1010.851
2022-10-07T18:53:30.118Z,1010.792
2022-10-07T18:58:42.511Z,1010.734
2022-10-07T19:03:54.843Z,1010.707
2022-10-07T19:09:07.171Z,1010.763
2022-10-07T19:14:19.407Z,1010.688
2022-10-07T19:19:31.710Z,1010.606
2022-10-07T19:24:44.146Z,1010.613
2022-10-07T19:29:56.493Z,1010.597
2022-10-07T19:35:08.910Z,1010.498
2022-10-07T19:40:21.007Z,1010.465
2022-10-07T19:45:33.490Z,1010.508
2022-10-07T19:50:45.898Z,1010.451
2022-10-07T19:55:58.309Z,1010.545
2022-10-07T20:01:10.476Z,1010.501
2022-10-07T20:06:22.669Z,1010.464
2022-10-07T20:11:35.069Z,1010.386
2022-10-07T20:16:47.534Z,1010.289
2022-10-07T20:21:59.482Z,1010.207
2022-10-07T20:27:11.769Z,1010.188
2022-10-07T20:32:24.143Z,1010.187
2022-10-07T20:37:36.611Z,1010.106
2022-10-07T20:42:49.158Z,1010.068
2022-10-07T20:48:01.029Z,1009.941
2022-10-07T20:53:13.312Z,1009.957
2022-10-07T20:58:25.971Z,1009.96
2022-10-07T21:03:38.407Z,1009.991
2022-10-07T21:08:50.856Z,1009.934
2022-10-07T21:14:03.092Z,1009.887
2022-10-07T21:19:15.573Z,1009.875
2022-10-07T21:24:27.944Z,1009.865
2022-10-07T21:29:41.154Z,1009.81
2022-10-07T21:34:52.758Z,1009.716
2022-10-07T21:40:04.991Z,1009.648
2022-10-07T21:45:17.273Z,1009.564
2022-10-07T21:50:29.639Z,1009.565
2022-10-07T21:55:41.982Z,1009.466
2022-10-07T22:00:54.120Z,1009.399
2022-10-07T22:06:06.550Z,1009.305
2022-10-07T22:11:18.931Z,1009.256
2022-10-07T22:16:31.189Z,1009.176
2022-10-07T22:21:43.555Z,1009.103
2022-10-07T22:26:56.061Z,1009.046
2022-10-07T22:32:08.186Z,1009
2022-10-07T22:37:20.619Z,1008.91
2022-10-07T22:42:33.111Z,1008.866
2022-10-07T22:47:45.257Z,1008.758
2022-10-07T22:52:57.456Z,1008.707
2022-10-07T22:58:09.841Z,1008.661
2022-10-07T23:03:22.286Z,1008.612
2022-10-07T23:08:34.687Z,1008.567
2022-10-07T23:13:47.241Z,1008.497
2022-10-07T23:18:59.508Z,1008.476
2022-10-07T23:24:12.037Z,1008.451
2022-10-07T23:29:24.507Z,1008.313
2022-10-07T23:34:36.902Z,1008.2
2022-10-07T23:39:49.128Z,1008.189
2022-10-07T23:45:01.483Z,1008.201
2022-10-07T23:50:13.780Z,1008.124
2022-10-07T23:55:26.342Z,1008.013
